createdAt,value
2018-12-19T11:32:10.412Z,15.40
2018-12-19T11:34:47.548Z,10.73
2018-12-19T11:37:30.644Z,13.40
2018-12-19T11:40:07.420Z,15.63
2018-12-19T11:42:53.077Z,14.58
2018-12-19T11:45:41.886Z,14.63
2018-12-19T11:48:25.197Z,13.83
2018-12-19T11:51:02.388Z,15.13
2018-12-19T11:53:53.349Z,14.03
2018-12-19T11:56:30.066Z,14.00
2018-12-19T11:59:11.348Z,12.85
2018-12-19T12:01:52.052Z,14.70
2018-12-19T12:04:27.208Z,14.60
2018-12-19T12:07:03.785Z,14.05
2018-12-19T12:09:43.806Z,14.03
2018-12-19T12:12:19.248Z,13.88
2018-12-19T12:15:10.031Z,14.80
2018-12-19T12:17:51.526Z,14.73
2018-12-19T12:20:26.527Z,14.23
2018-12-19T12:23:00.666Z,14.63
2018-12-19T12:25:36.653Z,13.63
2018-12-19T12:28:21.158Z,13.40
2018-12-19T12:30:56.315Z,13.70
2018-12-19T12:33:50.804Z,14.53
2018-12-19T12:36:27.583Z,13.58
2018-12-19T12:39:08.279Z,14.10
2018-12-19T12:41:54.591Z,14.58
2018-12-19T12:44:41.874Z,14.07
2018-12-19T12:47:18.599Z,13.90
2018-12-19T12:50:18.178Z,14.55
2018-12-19T12:53:13.340Z,12.13
2018-12-19T12:58:52.700Z,14.90
2018-12-19T13:01:27.110Z,13.53
2018-12-19T13:10:36.419Z,14.63
2018-12-19T13:13:26.576Z,15.27
2018-12-19T13:18:44.665Z,13.73
2018-12-19T13:21:17.509Z,15.80
2018-12-19T13:23:50.487Z,15.77
2018-12-19T13:26:22.726Z,13.53
2018-12-19T13:28:53.415Z,14.13
2018-12-19T13:31:24.032Z,15.60
2018-12-19T13:33:56.088Z,13.37
2018-12-19T13:36:26.785Z,15.37
2018-12-19T13:39:21.898Z,13.32
2018-12-19T13:41:52.646Z,14.80
2018-12-19T13:44:23.311Z,15.43
2018-12-19T13:46:55.034Z,15.65
2018-12-19T13:49:25.934Z,14.43
2018-12-19T13:51:57.692Z,15.80
2018-12-19T13:54:28.502Z,14.63
2018-12-19T13:56:59.215Z,14.98
2018-12-19T13:59:30.068Z,16.17
2018-12-19T14:02:00.836Z,15.80
2018-12-19T14:04:32.395Z,14.38
2018-12-19T14:07:03.212Z,14.63
2018-12-19T14:09:34.379Z,15.20
2018-12-19T14:12:12.149Z,14.13
2018-12-19T14:14:38.859Z,15.53
2018-12-19T14:17:11.807Z,15.10
2018-12-19T14:19:42.569Z,15.35
2018-12-19T14:22:15.490Z,15.38
2018-12-19T14:24:46.227Z,15.00
2018-12-19T14:27:16.931Z,15.57
2018-12-19T14:29:48.680Z,15.08
2018-12-19T14:32:24.899Z,16.05
2018-12-19T14:34:55.527Z,15.08
2018-12-19T14:37:29.546Z,15.48
2018-12-19T14:40:00.235Z,16.43
2018-12-19T14:42:31.106Z,15.90
2018-12-19T14:45:02.456Z,15.30
2018-12-19T14:47:33.323Z,12.60
2018-12-19T14:50:04.230Z,16.00
2018-12-19T14:52:35.067Z,16.17
2018-12-19T14:55:08.163Z,16.63
2018-12-19T14:57:40.172Z,17.40
2018-12-19T15:00:11.872Z,16.10
2018-12-19T15:02:46.721Z,16.77
2018-12-19T15:05:18.049Z,17.07
2018-12-19T15:07:49.054Z,16.73
2018-12-19T15:10:19.964Z,18.37
2018-12-19T15:12:50.684Z,14.00
2018-12-19T15:15:23.096Z,17.57
2018-12-19T15:17:53.848Z,17.93
2018-12-19T15:20:24.411Z,15.57
2018-12-19T15:22:55.781Z,18.70
2018-12-19T15:25:26.353Z,12.53
2018-12-19T15:27:57.166Z,13.20
2018-12-19T15:30:27.924Z,8.80
2018-12-19T15:32:59.198Z,15.87
2018-12-19T15:35:34.125Z,50.12
2018-12-19T15:38:04.930Z,20.90
2018-12-19T15:40:37.795Z,15.68
2018-12-19T15:43:08.990Z,12.83
2018-12-19T15:45:39.689Z,12.53
2018-12-19T15:48:19.375Z,9.67
2018-12-19T15:50:50.765Z,19.70
2018-12-19T15:53:22.876Z,9.07
2018-12-19T15:55:56.432Z,22.17
2018-12-19T15:58:27.561Z,15.07
2018-12-19T16:00:58.384Z,14.30
2018-12-19T16:03:30.241Z,17.87
2018-12-19T16:06:02.313Z,18.05
2018-12-19T16:08:38.533Z,20.25
2018-12-19T16:11:10.700Z,16.33
2018-12-19T16:14:05.323Z,19.97
2018-12-19T16:16:37.299Z,14.70
2018-12-19T16:19:08.229Z,17.77
2018-12-19T16:21:40.191Z,22.10
2018-12-19T16:24:10.995Z,23.03
2018-12-19T16:26:41.664Z,22.30
2018-12-19T16:29:12.433Z,23.80
2018-12-19T16:31:43.318Z,17.33
2018-12-19T16:34:14.107Z,20.80
2018-12-19T16:36:44.999Z,23.12
2018-12-19T16:39:21.574Z,24.57
2018-12-19T16:41:52.295Z,23.35
2018-12-19T16:44:23.467Z,26.90
2018-12-19T16:46:55.577Z,23.60
2018-12-19T16:49:27.859Z,22.93
2018-12-19T16:51:58.680Z,23.43
2018-12-19T16:54:29.766Z,22.10
2018-12-19T16:57:00.455Z,23.18
2018-12-19T16:59:33.135Z,24.07
2018-12-19T17:02:03.770Z,23.27
2018-12-19T17:04:34.425Z,24.87
2018-12-19T17:07:05.540Z,21.50
2018-12-19T17:09:37.543Z,22.42
2018-12-19T17:12:08.416Z,21.23
2018-12-19T17:14:40.114Z,23.07
2018-12-19T17:17:10.911Z,20.30
2018-12-19T17:19:51.229Z,20.90
2018-12-19T17:22:21.894Z,22.22
2018-12-19T17:24:52.646Z,22.48
2018-12-19T17:27:29.455Z,21.65
2018-12-19T17:30:00.089Z,21.05
2018-12-19T17:32:32.433Z,20.83
2018-12-19T17:35:15.454Z,20.27
2018-12-19T17:37:45.984Z,21.48
2018-12-19T17:40:18.189Z,20.10
2018-12-19T17:42:48.775Z,21.25
2018-12-19T17:45:19.496Z,22.98
2018-12-19T17:47:50.036Z,23.42
2018-12-19T17:50:21.704Z,23.62
2018-12-19T17:52:52.651Z,22.17
2018-12-19T17:55:25.259Z,23.62
2018-12-19T17:57:56.465Z,22.80
2018-12-19T18:00:27.305Z,25.52
2018-12-19T18:02:58.160Z,23.63
2018-12-19T18:05:29.077Z,26.07
2018-12-19T18:07:59.628Z,22.85
2018-12-19T18:10:30.135Z,24.20
2018-12-19T18:13:06.552Z,23.87
2018-12-19T18:16:23.526Z,24.50
2018-12-19T18:19:13.717Z,22.03
2018-12-19T18:21:44.382Z,24.18
2018-12-19T18:24:15.056Z,23.45
2018-12-19T18:26:45.622Z,22.48
2018-12-19T18:29:16.361Z,24.37
2018-12-19T18:31:46.908Z,23.32
2018-12-19T18:34:17.871Z,23.43
2018-12-19T18:36:48.554Z,22.73
2018-12-19T18:39:19.164Z,24.43
2018-12-19T18:44:53.895Z,25.00
2018-12-19T18:47:24.798Z,24.92
2018-12-19T18:49:55.363Z,23.87
2018-12-19T18:52:26.098Z,25.00
2018-12-19T18:54:56.837Z,21.77
2018-12-19T18:57:27.596Z,22.27
2018-12-19T18:59:58.494Z,24.52
2018-12-19T19:02:30.205Z,23.33
2018-12-19T19:05:01.174Z,24.00
2018-12-19T19:07:42.374Z,21.65
2018-12-19T19:10:25.807Z,23.15
2018-12-19T19:13:20.534Z,22.63
2018-12-19T19:15:51.313Z,21.37
2018-12-19T19:18:21.909Z,23.60
2018-12-19T19:20:52.731Z,22.65
2018-12-19T19:23:23.606Z,21.57
2018-12-19T19:32:50.176Z,21.27
2018-12-19T19:35:21.189Z,21.30
2018-12-19T19:37:52.330Z,20.82
2018-12-19T19:40:22.879Z,20.62
2018-12-19T19:42:55.131Z,20.40
2018-12-19T19:45:25.878Z,21.07
2018-12-19T19:47:56.666Z,20.83
2018-12-19T19:50:27.397Z,21.13
2018-12-19T20:06:22.432Z,19.48
2018-12-19T20:09:07.534Z,19.50
2018-12-19T20:26:41.646Z,18.70
2018-12-19T20:32:37.475Z,18.75
2018-12-19T20:35:14.243Z,18.90
2018-12-19T20:44:16.951Z,18.13
2018-12-19T20:57:03.599Z,16.55
2018-12-19T21:02:54.237Z,17.87
2018-12-19T21:05:30.716Z,19.17
2018-12-19T21:31:24.003Z,19.03
2018-12-19T21:34:15.349Z,18.15
2018-12-19T21:36:53.197Z,18.43
2018-12-19T21:39:35.387Z,17.15
2018-12-19T21:42:08.431Z,17.73
2018-12-19T21:48:04.597Z,20.43
2018-12-19T21:50:48.051Z,17.98
2018-12-19T21:53:41.112Z,18.40
2018-12-19T21:56:24.206Z,18.55
2018-12-19T22:05:40.907Z,18.50
2018-12-19T22:08:12.717Z,17.42
2018-12-19T22:10:45.015Z,17.50
2018-12-19T22:13:15.941Z,18.35
2018-12-19T22:15:47.009Z,18.52
2018-12-19T22:18:22.752Z,18.60
2018-12-19T22:20:53.576Z,18.93
2018-12-19T22:23:44.849Z,18.48
2018-12-19T22:26:24.536Z,17.87
2018-12-19T22:28:56.588Z,18.57
2018-12-19T22:37:48.547Z,18.23
2018-12-19T22:40:19.995Z,18.07
2018-12-19T22:42:51.047Z,19.03
2018-12-19T22:45:21.795Z,19.10
2018-12-19T22:47:53.153Z,18.90
2018-12-19T22:50:24.020Z,17.32
2018-12-19T22:52:56.632Z,18.92
2018-12-19T22:55:27.255Z,18.43
2018-12-19T22:57:57.964Z,18.60
2018-12-19T23:00:31.850Z,17.90
2018-12-19T23:03:08.653Z,17.53
2018-12-19T23:05:44.457Z,17.02
2018-12-19T23:08:15.340Z,17.50
2018-12-19T23:10:46.233Z,18.23
2018-12-19T23:13:17.580Z,18.50
2018-12-19T23:15:50.252Z,17.47
2018-12-19T23:18:27.841Z,17.15
2018-12-19T23:21:03.761Z,17.30
2018-12-19T23:23:39.896Z,17.77
2018-12-19T23:26:10.079Z,18.30
2018-12-19T23:28:42.665Z,17.20
2018-12-19T23:31:13.599Z,16.77
2018-12-19T23:33:44.465Z,18.33
2018-12-19T23:36:15.257Z,17.92
2018-12-19T23:38:45.879Z,17.80
2018-12-19T23:41:16.680Z,18.90
2018-12-19T23:43:47.465Z,17.60
2018-12-19T23:46:18.119Z,18.23
2018-12-19T23:49:05.721Z,18.73
2018-12-19T23:51:36.440Z,18.23
2018-12-19T23:54:07.175Z,17.90
2018-12-19T23:56:37.743Z,18.03
2018-12-19T23:59:08.852Z,18.48
